createdAt,value
2018-04-22T00:02:16.360Z,4.73
2018-04-22T00:04:44.558Z,4.87
2018-04-22T00:07:12.714Z,3.90
2018-04-22T00:09:40.817Z,6.13
2018-04-22T00:12:09.223Z,5.27
2018-04-22T00:14:37.558Z,4.70
2018-04-22T00:17:05.646Z,5.43
2018-04-22T00:19:34.014Z,3.20
2018-04-22T00:22:02.284Z,3.70
2018-04-22T00:24:30.470Z,3.30
2018-04-22T00:26:58.641Z,3.53
2018-04-22T00:29:26.827Z,7.33
2018-04-22T00:31:54.987Z,6.07
2018-04-22T00:34:23.436Z,3.83
2018-04-22T00:36:51.816Z,4.77
2018-04-22T00:39:20.094Z,3.63
2018-04-22T00:41:48.365Z,4.60
2018-04-22T00:44:16.576Z,6.43
2018-04-22T00:46:44.854Z,5.33
2018-04-22T00:49:12.952Z,3.67
2018-04-22T00:51:41.053Z,4.63
2018-04-22T00:54:20.963Z,4.20
2018-04-22T00:56:49.078Z,4.53
2018-04-22T00:59:17.250Z,6.40
2018-04-22T01:01:45.579Z,4.20
2018-04-22T01:04:13.799Z,5.80
2018-04-22T01:06:42.157Z,5.97
2018-04-22T01:09:10.482Z,3.70
2018-04-22T01:11:38.794Z,7.83
2018-04-22T01:14:06.936Z,8.90
2018-04-22T01:16:35.261Z,6.17
2018-04-22T01:19:03.428Z,5.50
2018-04-22T01:21:31.589Z,6.53
2018-04-22T01:23:59.822Z,4.23
2018-04-22T01:26:28.144Z,5.17
2018-04-22T01:28:56.289Z,5.57
2018-04-22T01:31:24.591Z,4.47
2018-04-22T01:33:52.732Z,5.43
2018-04-22T01:36:20.864Z,6.60
2018-04-22T01:38:48.972Z,4.17
2018-04-22T01:41:17.208Z,6.47
2018-04-22T01:43:45.298Z,3.90
2018-04-22T01:46:13.422Z,3.30
2018-04-22T01:48:41.745Z,6.60
2018-04-22T01:51:09.943Z,5.10
2018-04-22T01:53:38.172Z,3.60
2018-04-22T01:56:06.474Z,4.73
2018-04-22T01:58:34.677Z,4.07
2018-04-22T02:01:02.956Z,5.53
2018-04-22T02:03:31.308Z,5.43
2018-04-22T02:05:59.427Z,4.37
2018-04-22T02:08:27.590Z,4.57
2018-04-22T02:10:55.936Z,6.70
2018-04-22T02:13:24.325Z,3.83
2018-04-22T02:15:52.704Z,9.47
2018-04-22T02:18:21.075Z,7.23
2018-04-22T02:20:49.182Z,12.47
2018-04-22T02:23:17.423Z,4.27
2018-04-22T02:25:45.518Z,5.03
2018-04-22T02:28:13.613Z,4.57
2018-04-22T02:30:41.732Z,7.50
2018-04-22T02:33:09.995Z,7.63
2018-04-22T02:35:38.492Z,6.60
2018-04-22T02:38:06.790Z,4.00
2018-04-22T02:40:34.944Z,6.23
2018-04-22T02:43:03.317Z,7.63
2018-04-22T02:45:31.578Z,6.90
2018-04-22T02:47:59.857Z,3.83
2018-04-22T02:50:28.146Z,5.63
2018-04-22T02:52:56.240Z,4.57
2018-04-22T02:55:24.338Z,4.93
2018-04-22T02:57:52.413Z,6.83
2018-04-22T03:00:20.489Z,7.33
2018-04-22T03:02:48.586Z,5.83
2018-04-22T03:05:16.673Z,6.00
2018-04-22T03:07:44.925Z,6.60
2018-04-22T03:10:13.021Z,6.07
2018-04-22T03:12:41.298Z,4.73
2018-04-22T03:15:09.544Z,6.73
2018-04-22T03:17:37.654Z,4.63
2018-04-22T03:20:05.740Z,9.47
2018-04-22T03:22:33.937Z,4.97
2018-04-22T03:25:02.365Z,4.47
2018-04-22T03:27:30.678Z,6.40
2018-04-22T03:29:58.822Z,6.30
2018-04-22T03:32:26.900Z,4.87
2018-04-22T03:34:54.996Z,6.23
2018-04-22T03:37:23.116Z,5.23
2018-04-22T03:39:51.485Z,5.57
2018-04-22T03:42:19.613Z,4.17
2018-04-22T03:44:47.939Z,5.03
2018-04-22T03:47:16.002Z,6.57
2018-04-22T03:49:44.419Z,8.17
2018-04-22T03:52:12.493Z,5.27
2018-04-22T03:54:40.840Z,6.50
2018-04-22T03:57:09.089Z,6.00
2018-04-22T03:59:37.157Z,8.73
2018-04-22T04:02:05.316Z,7.33
2018-04-22T04:04:33.437Z,6.40
2018-04-22T04:07:01.535Z,5.43
2018-04-22T04:09:29.930Z,5.60
2018-04-22T04:11:58.028Z,4.20
2018-04-22T04:14:26.257Z,5.47
2018-04-22T04:16:54.508Z,6.43
2018-04-22T04:19:34.540Z,6.90
2018-04-22T04:22:14.282Z,6.80
2018-04-22T04:24:54.296Z,6.80
2018-04-22T04:30:23.929Z,5.00
2018-04-22T04:32:52.037Z,6.70
2018-04-22T04:35:20.541Z,6.93
2018-04-22T04:37:48.716Z,5.57
2018-04-22T04:40:16.862Z,5.53
2018-04-22T04:42:45.114Z,5.43
2018-04-22T04:45:13.241Z,9.10
2018-04-22T04:47:41.591Z,5.47
2018-04-22T04:50:09.699Z,5.07
2018-04-22T04:52:37.833Z,4.77
2018-04-22T04:55:06.799Z,5.80
2018-04-22T04:57:35.221Z,4.57
2018-04-22T05:00:03.486Z,8.53
2018-04-22T05:02:31.574Z,6.37
2018-04-22T05:04:59.699Z,6.90
2018-04-22T05:07:27.894Z,4.70
2018-04-22T05:09:56.001Z,5.67
2018-04-22T05:12:24.109Z,4.90
2018-04-22T05:14:52.175Z,4.07
2018-04-22T05:17:20.552Z,4.97
2018-04-22T05:19:48.684Z,4.90
2018-04-22T05:22:17.092Z,7.77
2018-04-22T05:24:45.516Z,6.43
2018-04-22T05:27:13.597Z,6.93
2018-04-22T05:29:42.016Z,5.33
2018-04-22T05:32:10.318Z,11.70
2018-04-22T05:34:38.630Z,7.20
2018-04-22T05:37:07.100Z,6.43
2018-04-22T05:39:35.339Z,6.60
2018-04-22T05:42:03.445Z,9.13
2018-04-22T05:44:32.234Z,8.77
2018-04-22T05:47:00.627Z,7.23
2018-04-22T05:49:28.821Z,8.50
2018-04-22T05:51:57.094Z,8.43
2018-04-22T05:54:25.447Z,6.87
2018-04-22T05:56:53.818Z,8.43
2018-04-22T05:59:22.976Z,6.27
2018-04-22T06:01:51.161Z,13.87
2018-04-22T06:04:19.579Z,9.70
2018-04-22T06:06:47.744Z,9.00
2018-04-22T06:09:15.840Z,11.37
2018-04-22T06:11:44.258Z,10.07
2018-04-22T06:14:12.385Z,9.03
2018-04-22T06:16:40.540Z,11.03
2018-04-22T06:19:08.760Z,8.03
2018-04-22T06:21:37.017Z,11.03
2018-04-22T06:24:05.349Z,12.00
2018-04-22T06:26:33.498Z,11.87
2018-04-22T06:29:01.753Z,15.37
2018-04-22T06:31:30.387Z,13.97
2018-04-22T06:33:58.806Z,7.13
2018-04-22T06:36:27.182Z,11.97
2018-04-22T06:38:55.533Z,11.77
2018-04-22T06:41:23.640Z,10.20
2018-04-22T06:43:51.743Z,9.70
2018-04-22T06:46:20.343Z,10.83
2018-04-22T06:48:48.484Z,11.50
2018-04-22T06:51:16.741Z,7.70
2018-04-22T06:53:45.130Z,13.80
2018-04-22T06:56:13.289Z,12.17
2018-04-22T06:58:41.487Z,9.03
2018-04-22T07:01:09.813Z,13.43
2018-04-22T07:03:37.975Z,10.13
2018-04-22T07:06:06.482Z,9.97
2018-04-22T07:08:35.230Z,12.23
2018-04-22T07:11:03.377Z,9.60
2018-04-22T07:13:31.514Z,11.03
2018-04-22T07:15:59.767Z,6.83
2018-04-22T07:18:28.149Z,8.83
2018-04-22T07:20:56.224Z,8.23
2018-04-22T07:23:24.642Z,10.27
2018-04-22T07:25:53.047Z,8.43
2018-04-22T07:28:21.392Z,8.50
2018-04-22T07:30:49.791Z,11.60
2018-04-22T07:33:18.027Z,8.63
2018-04-22T07:35:46.322Z,12.03
2018-04-22T07:38:14.797Z,9.50
2018-04-22T07:40:43.054Z,8.53
2018-04-22T07:43:11.387Z,10.63
2018-04-22T07:45:39.732Z,9.50
2018-04-22T07:48:08.059Z,9.23
2018-04-22T07:50:36.162Z,8.70
2018-04-22T07:53:04.372Z,10.87
2018-04-22T07:55:33.003Z,10.03
2018-04-22T07:58:01.157Z,9.33
2018-04-22T08:00:29.759Z,16.03
2018-04-22T08:02:58.012Z,8.57
2018-04-22T08:05:26.432Z,7.03
2018-04-22T08:07:54.642Z,6.63
2018-04-22T08:10:23.164Z,10.17
2018-04-22T08:12:52.287Z,9.63
2018-04-22T08:15:20.599Z,13.53
2018-04-22T08:17:48.938Z,7.03
2018-04-22T08:20:17.415Z,12.70
2018-04-22T08:22:45.776Z,11.57
2018-04-22T08:25:13.926Z,10.23
2018-04-22T08:27:42.165Z,9.27
2018-04-22T08:30:10.327Z,11.60
2018-04-22T08:32:38.595Z,13.13
2018-04-22T08:35:07.365Z,12.00
2018-04-22T08:37:35.566Z,10.37
2018-04-22T08:40:03.642Z,11.63
2018-04-22T08:42:31.753Z,9.23
2018-04-22T08:44:59.932Z,10.40
2018-04-22T08:47:28.137Z,8.30
2018-04-22T08:49:56.253Z,12.33
2018-04-22T08:52:24.668Z,9.53
2018-04-22T08:54:52.855Z,11.80
2018-04-22T08:57:21.011Z,13.93
2018-04-22T08:59:49.332Z,7.93
2018-04-22T09:02:17.986Z,11.23
2018-04-22T09:04:46.269Z,12.83
2018-04-22T09:07:14.684Z,15.60
2018-04-22T09:09:43.031Z,12.80
2018-04-22T09:12:11.130Z,12.00
2018-04-22T09:14:39.624Z,12.70
2018-04-22T09:17:07.927Z,10.77
2018-04-22T09:19:36.468Z,14.70
2018-04-22T09:22:04.919Z,12.33
2018-04-22T09:24:33.067Z,15.13
2018-04-22T09:27:01.293Z,14.00
2018-04-22T09:29:29.828Z,13.03
2018-04-22T09:31:58.034Z,13.60
2018-04-22T09:34:26.442Z,12.37
2018-04-22T09:36:54.796Z,12.97
2018-04-22T09:39:23.077Z,16.47
2018-04-22T09:41:51.296Z,15.23
2018-04-22T09:44:19.674Z,14.33
2018-04-22T09:46:47.867Z,15.50
2018-04-22T09:49:15.957Z,14.17
2018-04-22T09:51:44.228Z,13.23
2018-04-22T09:54:12.545Z,15.97
2018-04-22T09:56:40.682Z,12.10
2018-04-22T09:59:08.912Z,15.27
2018-04-22T10:01:37.157Z,13.60
2018-04-22T10:04:11.103Z,16.70
2018-04-22T10:06:39.689Z,14.90
2018-04-22T10:09:08.017Z,18.30
2018-04-22T10:11:36.254Z,14.90
2018-04-22T10:14:04.425Z,17.13
2018-04-22T10:16:32.937Z,16.20
2018-04-22T10:19:01.330Z,14.60
2018-04-22T10:21:29.741Z,15.70
2018-04-22T10:23:57.971Z,16.93
2018-04-22T10:26:26.093Z,18.20
2018-04-22T10:28:54.371Z,14.27
2018-04-22T10:31:22.573Z,18.73
2018-04-22T10:33:50.680Z,19.23
2018-04-22T10:36:18.909Z,17.80
2018-04-22T10:38:47.152Z,18.73
2018-04-22T10:41:16.158Z,19.57
2018-04-22T10:43:44.731Z,20.97
2018-04-22T10:46:13.106Z,16.97
2018-04-22T10:48:41.203Z,16.77
2018-04-22T10:51:09.980Z,17.87
2018-04-22T10:53:38.562Z,16.00
2018-04-22T10:56:06.667Z,17.57
2018-04-22T10:58:35.301Z,16.67
2018-04-22T11:01:03.381Z,17.70
2018-04-22T11:03:31.873Z,17.07
2018-04-22T11:06:00.423Z,18.77
2018-04-22T11:08:28.662Z,17.00
2018-04-22T11:10:56.767Z,18.60
2018-04-22T11:13:25.325Z,17.47
2018-04-22T11:15:53.727Z,17.73
2018-04-22T11:18:21.875Z,19.33
2018-04-22T11:20:50.137Z,19.20
2018-04-22T11:23:18.530Z,20.50
2018-04-22T11:25:46.852Z,22.03
2018-04-22T11:28:15.250Z,19.07
2018-04-22T11:30:43.380Z,18.93
2018-04-22T11:33:11.513Z,18.07
2018-04-22T11:35:40.159Z,22.97
2018-04-22T11:38:08.416Z,22.43
2018-04-22T11:40:36.536Z,16.57
2018-04-22T11:43:04.692Z,20.17
2018-04-22T11:45:32.906Z,19.80
2018-04-22T11:48:01.037Z,18.13
2018-04-22T11:50:29.985Z,17.80
2018-04-22T11:52:58.115Z,18.27
2018-04-22T11:55:26.223Z,21.50
2018-04-22T11:57:54.393Z,20.03
2018-04-22T12:00:22.673Z,17.60
2018-04-22T12:02:51.006Z,20.10
2018-04-22T12:05:19.094Z,17.53
2018-04-22T12:07:47.228Z,16.27
2018-04-22T12:10:15.405Z,18.17
2018-04-22T12:12:43.561Z,16.87
2018-04-22T12:15:12.214Z,17.53
2018-04-22T12:17:40.578Z,17.73
2018-04-22T12:20:08.761Z,15.77
2018-04-22T12:22:37.233Z,17.40
2018-04-22T12:25:05.426Z,19.10
2018-04-22T12:27:33.637Z,18.33
2018-04-22T12:30:02.020Z,19.97
2018-04-22T12:42:17.902Z,21.27
2018-04-22T12:44:46.011Z,19.27
2018-04-22T12:50:56.351Z,20.30
2018-04-22T12:53:24.958Z,21.37
2018-04-22T12:55:53.528Z,19.23
2018-04-22T12:58:21.897Z,20.57
2018-04-22T13:41:20.486Z,25.00
2018-04-22T13:43:48.696Z,21.13
2018-04-22T13:46:16.994Z,21.70
2018-04-22T13:48:45.275Z,25.20
2018-04-22T13:51:13.481Z,21.60
2018-04-22T13:53:41.761Z,21.80
2018-04-22T13:56:10.038Z,22.03
2018-04-22T13:58:38.395Z,21.73
2018-04-22T14:01:06.677Z,20.50
2018-04-22T14:03:35.025Z,18.87
2018-04-22T14:06:03.660Z,26.00
2018-04-22T14:08:31.890Z,21.87
2018-04-22T14:11:00.081Z,17.53
2018-04-22T14:13:28.410Z,20.13
2018-04-22T14:15:56.877Z,20.03
2018-04-22T14:18:25.670Z,21.93
2018-04-22T14:20:54.199Z,22.67
2018-04-22T14:23:23.085Z,20.00
2018-04-22T14:25:51.587Z,19.17
2018-04-22T14:28:20.175Z,19.30
2018-04-22T14:30:48.814Z,18.17
2018-04-22T14:33:18.576Z,19.93
2018-04-22T14:35:47.139Z,20.07
2018-04-22T14:38:15.809Z,19.60
2018-04-22T14:40:44.318Z,18.37
2018-04-22T14:43:12.697Z,17.67
2018-04-22T14:45:53.243Z,17.10
2018-04-22T14:48:21.578Z,18.57
2018-04-22T14:50:49.863Z,19.50
2018-04-22T14:53:18.548Z,17.30
2018-04-22T14:55:47.392Z,19.07
2018-04-22T14:58:16.180Z,16.50
2018-04-22T15:00:44.944Z,18.77
2018-04-22T15:03:13.544Z,21.97
2018-04-22T15:05:42.403Z,18.50
2018-04-22T15:08:10.824Z,17.67
2018-04-22T15:10:39.508Z,16.67
2018-04-22T15:13:07.855Z,18.97
2018-04-22T15:15:36.080Z,19.00
2018-04-22T15:18:04.260Z,18.70
2018-04-22T15:20:32.572Z,20.93
2018-04-22T15:23:01.009Z,19.60
2018-04-22T15:25:29.183Z,25.27
2018-04-22T15:27:57.668Z,23.33
2018-04-22T15:30:26.114Z,22.87
2018-04-22T15:32:54.548Z,21.07
2018-04-22T15:35:22.922Z,21.40
2018-04-22T15:37:51.194Z,19.83
2018-04-22T15:40:19.758Z,20.73
2018-04-22T15:42:48.122Z,19.30
2018-04-22T15:45:16.466Z,24.83
2018-04-22T15:47:45.077Z,21.17
2018-04-22T15:50:13.479Z,20.03
2018-04-22T15:52:41.825Z,22.57
2018-04-22T15:55:10.853Z,20.53
2018-04-22T15:57:39.292Z,19.23
2018-04-22T16:00:07.911Z,21.70
2018-04-22T16:02:36.076Z,20.27
2018-04-22T16:05:05.055Z,21.33
2018-04-22T16:07:33.560Z,20.73
2018-04-22T16:10:02.013Z,19.53
2018-04-22T16:12:30.844Z,21.77
2018-04-22T16:14:59.158Z,20.30
2018-04-22T16:17:27.909Z,21.93
2018-04-22T16:19:56.178Z,21.90
2018-04-22T16:22:24.608Z,20.83
2018-04-22T16:24:52.917Z,22.20
2018-04-22T16:27:21.204Z,19.27
2018-04-22T16:29:49.713Z,21.63
2018-04-22T16:32:18.138Z,19.73
2018-04-22T16:34:46.824Z,19.67
2018-04-22T16:37:15.227Z,21.93
2018-04-22T16:39:43.664Z,23.60
2018-04-22T16:42:12.556Z,19.67
2018-04-22T16:44:41.250Z,20.77
2018-04-22T16:47:10.005Z,20.20
2018-04-22T16:49:39.047Z,20.77
2018-04-22T16:52:07.590Z,20.97
2018-04-22T16:54:36.057Z,22.43
2018-04-22T16:57:04.694Z,21.00
2018-04-22T16:59:33.486Z,20.87
2018-04-22T17:02:02.201Z,30.50
2018-04-22T17:04:30.653Z,19.93
2018-04-22T17:06:59.176Z,19.90
2018-04-22T17:09:28.216Z,22.53
2018-04-22T17:11:56.891Z,20.17
2018-04-22T17:14:25.750Z,19.50
2018-04-22T17:16:54.282Z,20.33
2018-04-22T17:19:24.208Z,20.40
2018-04-22T17:21:53.799Z,21.83
2018-04-22T17:24:22.503Z,19.07
2018-04-22T17:26:51.148Z,21.67
2018-04-22T17:29:19.755Z,20.03
2018-04-22T17:31:48.284Z,21.30
2018-04-22T17:34:16.826Z,20.63
2018-04-22T17:36:45.297Z,21.07
2018-04-22T17:39:13.890Z,21.70
2018-04-22T17:41:42.427Z,24.97
2018-04-22T17:44:11.604Z,15.30
2018-04-22T17:46:41.263Z,13.00
2018-04-22T17:49:09.557Z,17.03
2018-04-22T17:51:38.194Z,13.77
2018-04-22T17:54:06.709Z,15.37
2018-04-22T17:56:35.064Z,12.30
2018-04-22T17:59:03.245Z,11.40
2018-04-22T18:01:31.847Z,9.13
2018-04-22T18:04:00.046Z,5.70
2018-04-22T18:06:28.544Z,5.63
2018-04-22T18:08:57.014Z,9.13
2018-04-22T18:11:25.524Z,8.10
2018-04-22T18:13:53.637Z,4.60
2018-04-22T18:16:21.850Z,5.97
2018-04-22T18:18:50.102Z,6.17
2018-04-22T18:21:18.256Z,3.83
2018-04-22T18:23:46.841Z,7.33
2018-04-22T18:26:15.136Z,8.63
2018-04-22T18:28:43.233Z,4.53
2018-04-22T18:31:11.649Z,6.90
2018-04-22T18:33:41.043Z,6.23
2018-04-22T18:36:09.115Z,6.73
2018-04-22T18:38:37.425Z,7.10
2018-04-22T18:41:05.584Z,8.20
2018-04-22T18:43:33.780Z,8.73
2018-04-22T18:46:01.872Z,4.57
2018-04-22T18:48:29.956Z,6.33
2018-04-22T18:50:58.127Z,5.70
2018-04-22T18:53:26.266Z,7.50
2018-04-22T18:55:54.529Z,6.57
2018-04-22T18:58:22.822Z,8.00
2018-04-22T19:00:50.948Z,8.80
2018-04-22T19:03:19.080Z,9.00
2018-04-22T19:05:47.746Z,5.27
2018-04-22T19:08:15.863Z,5.57
2018-04-22T19:10:44.221Z,5.77
2018-04-22T19:13:12.549Z,4.43
2018-04-22T19:15:41.076Z,5.73
2018-04-22T19:18:09.600Z,6.03
2018-04-22T19:20:38.009Z,7.10
2018-04-22T19:23:06.181Z,5.33
2018-04-22T19:25:34.521Z,3.80
2018-04-22T19:28:03.041Z,4.67
2018-04-22T19:30:31.228Z,3.03
2018-04-22T19:32:59.646Z,4.10
2018-04-22T19:35:28.038Z,2.83
2018-04-22T19:37:56.287Z,4.23
2018-04-22T19:40:24.440Z,3.27
2018-04-22T19:42:52.614Z,2.30
2018-04-22T19:45:20.988Z,3.77
2018-04-22T19:47:49.314Z,2.10
2018-04-22T19:50:17.461Z,2.20
2018-04-22T19:52:45.997Z,2.10
2018-04-22T19:55:14.135Z,2.27
2018-04-22T19:57:42.438Z,2.90
2018-04-22T20:00:10.729Z,2.47
2018-04-22T20:02:39.006Z,3.43
2018-04-22T20:05:07.247Z,2.43
2018-04-22T20:07:35.437Z,4.03
2018-04-22T20:10:03.573Z,3.83
2018-04-22T20:12:31.845Z,3.30
2018-04-22T20:14:59.982Z,2.87
2018-04-22T20:17:28.327Z,3.17
2018-04-22T20:20:05.901Z,4.37
2018-04-22T20:22:37.123Z,3.07
2018-04-22T20:25:05.289Z,4.03
2018-04-22T20:27:35.680Z,2.43
2018-04-22T20:30:04.238Z,3.83
2018-04-22T20:32:32.849Z,3.80
2018-04-22T20:35:01.112Z,2.07
2018-04-22T20:37:29.278Z,3.90
2018-04-22T20:39:58.080Z,2.33
2018-04-22T20:42:26.564Z,2.40
2018-04-22T20:44:54.673Z,5.37
2018-04-22T20:47:23.171Z,4.27
2018-04-22T20:49:51.313Z,4.30
2018-04-22T20:52:19.478Z,5.13
2018-04-22T20:54:47.837Z,2.63
2018-04-22T20:57:15.973Z,4.33
2018-04-22T20:59:44.273Z,3.50
2018-04-22T21:02:12.606Z,4.63
2018-04-22T21:04:40.753Z,6.63
2018-04-22T21:07:09.000Z,5.90
2018-04-22T21:09:37.143Z,4.73
2018-04-22T21:12:05.411Z,4.80
2018-04-22T21:14:33.574Z,5.53
2018-04-22T21:17:02.414Z,4.77
2018-04-22T21:19:31.226Z,5.20
2018-04-22T21:21:59.315Z,7.77
2018-04-22T21:24:27.653Z,4.33
2018-04-22T21:26:56.017Z,4.97
2018-04-22T21:29:24.237Z,5.53
2018-04-22T21:31:52.571Z,4.43
2018-04-22T21:34:20.860Z,7.00
2018-04-22T21:36:49.319Z,4.90
2018-04-22T21:39:17.696Z,6.57
2018-04-22T21:41:45.816Z,7.33
2018-04-22T21:44:14.133Z,5.30
2018-04-22T21:46:42.528Z,5.63
2018-04-22T21:49:10.651Z,5.13
2018-04-22T21:51:39.001Z,3.73
2018-04-22T21:54:07.239Z,8.20
2018-04-22T21:56:35.646Z,4.93
2018-04-22T21:59:03.747Z,6.47
2018-04-22T22:01:32.081Z,5.93
2018-04-22T22:04:00.251Z,5.37
2018-04-22T22:06:28.327Z,5.40
2018-04-22T22:08:56.749Z,4.70
2018-04-22T22:11:25.081Z,7.13
2018-04-22T22:13:53.373Z,5.97
2018-04-22T22:16:21.456Z,4.87
2018-04-22T22:18:50.125Z,8.37
2018-04-22T22:21:18.198Z,6.10
2018-04-22T22:23:46.671Z,5.10
2018-04-22T22:26:15.002Z,8.37
2018-04-22T22:28:43.279Z,8.63
2018-04-22T22:31:11.420Z,9.83
2018-04-22T22:33:39.782Z,8.07
2018-04-22T22:36:08.143Z,6.83
2018-04-22T22:38:36.335Z,6.33
2018-04-22T22:41:04.645Z,7.23
2018-04-22T22:43:32.766Z,6.80
2018-04-22T22:46:01.087Z,7.60
2018-04-22T22:48:29.522Z,5.93
2018-04-22T22:50:57.647Z,6.27
2018-04-22T22:53:25.966Z,5.83
2018-04-22T22:55:54.317Z,6.53
2018-04-22T22:58:22.450Z,4.67
2018-04-22T23:00:50.707Z,7.17
2018-04-22T23:03:19.192Z,5.27
2018-04-22T23:05:47.483Z,8.00
2018-04-22T23:08:15.586Z,5.43
2018-04-22T23:10:43.917Z,5.73
2018-04-22T23:13:12.024Z,5.40
2018-04-22T23:15:40.110Z,5.80
2018-04-22T23:18:08.300Z,6.07
2018-04-22T23:20:36.784Z,5.27
2018-04-22T23:23:04.990Z,5.90
2018-04-22T23:25:33.065Z,5.90
2018-04-22T23:28:01.355Z,4.93
2018-04-22T23:30:29.469Z,5.50
2018-04-22T23:32:57.591Z,8.50
2018-04-22T23:35:25.854Z,6.57
2018-04-22T23:37:53.966Z,5.33
2018-04-22T23:40:22.256Z,6.20
2018-04-22T23:42:50.490Z,7.80
2018-04-22T23:45:18.772Z,11.13
2018-04-22T23:47:47.203Z,8.47
2018-04-22T23:50:15.548Z,6.27
2018-04-22T23:52:43.868Z,6.90
2018-04-22T23:55:12.021Z,7.80
2018-04-22T23:57:40.430Z,6.47
